Time;durP1;ratioP1;P1;durP2;ratioP2;P2;SDS_P1;SDS_P2;PMS_P1;PMS_P2;Temp;Humidity;BMP_temperature;BMP_pressure;BME280_temperature;BME280_humidity;BME280_pressure;Samples;Min_cycle;Max_cycle;Signal;HPM_P1;HPM_P2
2023/08/22 00:01:34;;;;;;;28.52;27.45;;;23.90;99.90;;;;;;5013888;28;20209;-62
2023/08/22 00:04:01;;;;;;;34.35;33.10;;;24.00;99.90;;;;;;5013896;28;20229;-66
2023/08/22 00:06:28;;;;;;;33.45;32.15;;;23.90;99.90;;;;;;5014323;28;20264;-62
2023/08/22 00:08:56;;;;;;;35.42;34.13;;;23.80;99.90;;;;;;5014003;28;20210;-63
2023/08/22 00:11:23;;;;;;;31.88;30.73;;;23.80;99.90;;;;;;5013636;28;20209;-63
2023/08/22 00:13:50;;;;;;;34.15;32.95;;;23.80;99.90;;;;;;5014062;28;20204;-62
2023/08/22 00:16:17;;;;;;;32.95;31.83;;;23.80;99.90;;;;;;5013964;28;20228;-63
2023/08/22 00:18:43;;;;;;;31.48;30.35;;;23.80;99.90;;;;;;5013556;28;20307;-63
2023/08/22 00:21:10;;;;;;;33.92;32.72;;;23.70;99.90;;;;;;5013375;28;20215;-61
2023/08/22 00:23:37;;;;;;;31.55;30.45;;;23.70;99.90;;;;;;5013474;28;20225;-62
2023/08/22 00:26:06;;;;;;;50.92;48.85;;;23.60;99.90;;;;;;5013709;28;20608;-63
2023/08/22 00:28:32;;;;;;;32.58;31.38;;;23.60;99.90;;;;;;5013515;28;20235;-63
2023/08/22 00:30:59;;;;;;;40.50;38.97;;;23.60;99.90;;;;;;5012937;28;20215;-63
2023/08/22 00:33:26;;;;;;;30.13;29.08;;;23.50;99.90;;;;;;5013525;28;20224;-63
2023/08/22 00:35:53;;;;;;;29.63;28.38;;;23.50;99.90;;;;;;5013438;28;20212;-62
2023/08/22 00:38:20;;;;;;;29.55;28.52;;;23.50;99.90;;;;;;5013550;28;20215;-63
2023/08/22 00:40:47;;;;;;;31.08;29.98;;;23.50;99.90;;;;;;5012815;28;20209;-63
2023/08/22 00:43:15;;;;;;;27.83;26.83;;;23.50;99.90;;;;;;5013060;28;20671;-63
2023/08/22 00:45:43;;;;;;;29.48;28.45;;;23.40;99.90;;;;;;5013117;28;20219;-64
2023/08/22 00:48:10;;;;;;;31.15;30.05;;;23.50;99.90;;;;;;5013135;28;20472;-64
2023/08/22 00:50:37;;;;;;;27.92;26.92;;;23.50;99.90;;;;;;5012887;28;20291;-61
2023/08/22 00:53:04;;;;;;;30.85;29.75;;;23.50;99.90;;;;;;5012834;28;20208;-64
2023/08/22 00:55:33;;;;;;;28.25;27.25;;;23.50;99.90;;;;;;5011914;28;20567;-63
2023/08/22 00:58:01;;;;;;;29.33;28.27;;;23.40;99.90;;;;;;5011967;28;20229;-64
2023/08/22 01:00:29;;;;;;;28.65;27.63;;;23.50;99.90;;;;;;5012095;28;20683;-63
2023/08/22 01:02:56;;;;;;;28.08;27.08;;;23.40;99.90;;;;;;5014332;28;20323;-64
2023/08/22 01:05:25;;;;;;;30.27;29.17;;;23.40;99.90;;;;;;5012358;28;20215;-64
2023/08/22 01:07:56;;;;;;;31.23;30.02;;;23.40;99.90;;;;;;5012263;28;20316;-63
2023/08/22 01:10:29;;;;;;;29.83;28.73;;;23.40;99.90;;;;;;5011195;28;20586;-63
2023/08/22 01:13:02;;;;;;;25.85;24.95;;;23.30;99.90;;;;;;5012053;28;20236;-63
2023/08/22 01:15:34;;;;;;;25.45;24.55;;;23.20;99.90;;;;;;5012176;28;20209;-65
2023/08/22 01:18:03;;;;;;;26.75;25.80;;;23.30;99.90;;;;;;5012082;28;20233;-64
2023/08/22 01:20:31;;;;;;;26.27;25.27;;;23.20;99.90;;;;;;5011519;28;20220;-64
2023/08/22 01:22:59;;;;;;;25.50;24.60;;;23.10;99.90;;;;;;5011853;28;20288;-63
2023/08/22 01:25:28;;;;;;;30.67;29.58;;;23.10;99.90;;;;;;5013100;28;20312;-65
2023/08/22 01:28:11;;;;;;;28.63;27.52;;;23.20;99.90;;;;;;5008792;28;20229;-64
2023/08/22 01:30:47;;;;;;;25.85;24.98;;;23.10;99.90;;;;;;5010480;28;20672;-63
2023/08/22 01:33:23;;;;;;;24.98;24.08;;;23.10;99.90;;;;;;5011348;28;20187;-63
2023/08/22 01:35:53;;;;;;;28.63;27.52;;;23.10;99.90;;;;;;5011471;28;20200;-64
2023/08/22 01:38:23;;;;;;;26.10;25.17;;;23.10;99.90;;;;;;5011451;28;20213;-63
2023/08/22 01:40:51;;;;;;;29.02;28.02;;;23.10;99.90;;;;;;5011002;28;20197;-63
2023/08/22 01:43:19;;;;;;;24.90;24.02;;;23.20;99.90;;;;;;5010859;28;20225;-64
2023/08/22 01:45:46;;;;;;;24.85;23.95;;;23.20;99.90;;;;;;5011166;28;20288;-63
2023/08/22 01:48:13;;;;;;;25.40;24.50;;;23.20;99.90;;;;;;5010716;28;20213;-63
2023/08/22 01:50:39;;;;;;;25.85;24.95;;;23.10;99.90;;;;;;5010524;28;20209;-63
2023/08/22 01:53:06;;;;;;;29.55;28.52;;;23.10;99.90;;;;;;5010939;28;20205;-63
2023/08/22 01:55:34;;;;;;;30.92;29.83;;;23.10;99.90;;;;;;5011269;28;20205;-63
2023/08/22 01:58:04;;;;;;;28.75;27.73;;;23.00;99.90;;;;;;5009307;28;20311;-63
2023/08/22 02:00:30;;;;;;;25.13;24.23;;;22.90;99.90;;;;;;5011260;28;20244;-63
2023/08/22 02:02:58;;;;;;;27.38;26.38;;;22.90;99.90;;;;;;5011886;28;20220;-64
2023/08/22 02:05:24;;;;;;;31.17;30.08;;;22.90;99.90;;;;;;5012179;28;20292;-63
2023/08/22 02:07:51;;;;;;;25.80;24.90;;;22.90;99.90;;;;;;5011697;28;20229;-63
2023/08/22 02:10:18;;;;;;;24.33;23.42;;;22.90;99.90;;;;;;5011152;28;20639;-62
2023/08/22 02:12:46;;;;;;;25.92;25.02;;;22.90;99.90;;;;;;5012498;28;20212;-64
2023/08/22 02:15:13;;;;;;;30.45;29.38;;;22.80;99.90;;;;;;5013227;28;20216;-62
2023/08/22 02:17:40;;;;;;;26.90;25.85;;;22.90;99.90;;;;;;5012770;28;20298;-63
2023/08/22 02:20:09;;;;;;;24.40;23.58;;;22.80;99.90;;;;;;5010967;28;20742;-62
2023/08/22 02:22:39;;;;;;;29.13;28.08;;;22.90;99.90;;;;;;5011266;28;20737;-62
2023/08/22 02:25:06;;;;;;;31.17;30.08;;;22.90;99.90;;;;;;5010355;28;20561;-64
2023/08/22 02:27:33;;;;;;;24.65;23.75;;;22.90;99.90;;;;;;5010778;28;20320;-63
2023/08/22 02:30:01;;;;;;;27.92;26.92;;;22.80;99.90;;;;;;5009930;28;20209;-63
2023/08/22 02:32:28;;;;;;;26.63;25.67;;;22.80;99.90;;;;;;5010836;28;20213;-62
2023/08/22 02:34:54;;;;;;;27.77;26.77;;;22.80;99.90;;;;;;5011047;28;20206;-63
2023/08/22 02:37:21;;;;;;;28.67;27.67;;;22.80;99.90;;;;;;5010311;28;20541;-63
2023/08/22 02:39:48;;;;;;;43.25;41.65;;;22.80;99.90;;;;;;5010198;28;20243;-63
2023/08/22 02:42:15;;;;;;;35.75;34.45;;;22.80;99.90;;;;;;5010823;28;20211;-62
2023/08/22 02:44:42;;;;;;;31.35;30.25;;;22.70;99.90;;;;;;5010691;28;20221;-63
2023/08/22 02:47:12;;;;;;;42.15;40.63;;;22.60;99.90;;;;;;5041409;22;20239;-66
2023/08/22 02:49:39;;;;;;;27.83;26.85;;;22.50;99.90;;;;;;5026563;28;20215;-67
2023/08/22 02:52:07;;;;;;;27.75;26.77;;;22.50;99.90;;;;;;5031197;28;20221;-66
2023/08/22 02:54:33;;;;;;;31.08;29.98;;;22.50;99.90;;;;;;5030032;28;20201;-65
2023/08/22 02:57:00;;;;;;;33.92;32.72;;;22.40;99.90;;;;;;5030072;28;20318;-67
2023/08/22 02:59:27;;;;;;;31.67;30.60;;;22.40;99.90;;;;;;5029511;28;20211;-66
2023/08/22 03:01:54;;;;;;;48.33;46.55;;;22.30;99.90;;;;;;5030841;28;20218;-66
2023/08/22 03:04:22;;;;;;;49.75;47.97;;;22.20;99.90;;;;;;5029752;28;20225;-67
2023/08/22 03:06:49;;;;;;;43.88;42.35;;;22.30;99.90;;;;;;5029809;28;20232;-67
2023/08/22 03:09:16;;;;;;;49.42;47.70;;;22.20;99.90;;;;;;5029331;28;20216;-68
2023/08/22 03:11:43;;;;;;;38.38;37.03;;;22.20;99.90;;;;;;5030634;28;20212;-67
2023/08/22 03:14:10;;;;;;;60.65;58.50;;;22.30;99.90;;;;;;5030064;28;20749;-68
2023/08/22 03:16:37;;;;;;;50.55;48.72;;;22.30;99.90;;;;;;5029687;28;20251;-66
2023/08/22 03:19:03;;;;;;;57.95;55.90;;;22.30;99.90;;;;;;5029442;28;20201;-66
2023/08/22 03:21:32;;;;;;;56.42;54.45;;;22.20;99.90;;;;;;5029384;28;20208;-65
2023/08/22 03:23:58;;;;;;;71.22;68.70;;;22.20;99.90;;;;;;5031077;28;20224;-65
2023/08/22 03:26:26;;;;;;;45.03;43.42;;;22.20;99.90;;;;;;5034533;28;20204;-68
2023/08/22 03:28:53;;;;;;;67.10;64.75;;;22.30;99.90;;;;;;5035423;28;20208;-67
2023/08/22 03:31:22;;;;;;;60.00;57.88;;;22.20;99.90;;;;;;5032211;28;20210;-64
2023/08/22 03:33:48;;;;;;;48.25;46.53;;;22.10;99.90;;;;;;5033209;28;20196;-66
2023/08/22 03:36:15;;;;;;;50.33;48.47;;;22.00;99.90;;;;;;5033878;28;20217;-65
2023/08/22 03:38:43;;;;;;;54.70;52.80;;;22.10;99.90;;;;;;5033955;28;20211;-65
2023/08/22 03:41:10;;;;;;;55.75;53.80;;;22.20;99.90;;;;;;5032796;28;20674;-67
2023/08/22 03:43:37;;;;;;;66.80;64.50;;;22.10;99.90;;;;;;5033131;28;20686;-66
2023/08/22 03:46:04;;;;;;;50.72;48.90;;;22.10;99.90;;;;;;5033040;28;20588;-67
2023/08/22 03:48:30;;;;;;;43.85;42.30;;;22.00;99.90;;;;;;5033095;28;20240;-68
2023/08/22 03:50:59;;;;;;;52.30;50.38;;;22.10;99.90;;;;;;5032638;28;20211;-66
2023/08/22 03:53:26;;;;;;;51.45;49.47;;;22.00;99.90;;;;;;5032881;28;20303;-65
2023/08/22 03:55:55;;;;;;;77.13;74.10;;;22.00;99.90;;;;;;5033134;28;20213;-65
2023/08/22 03:58:21;;;;;;;59.20;57.10;;;21.90;99.90;;;;;;5033049;28;20236;-65
2023/08/22 04:00:48;;;;;;;62.85;60.65;;;21.90;99.90;;;;;;5033158;28;20243;-66
2023/08/22 04:03:15;;;;;;;60.63;58.47;;;21.90;99.90;;;;;;5034767;28;20231;-69
2023/08/22 04:05:43;;;;;;;53.90;52.00;;;21.90;99.90;;;;;;5040513;28;20689;-67
2023/08/22 04:08:09;;;;;;;44.63;43.03;;;21.90;99.90;;;;;;5033857;28;20733;-67
2023/08/22 04:10:36;;;;;;;61.10;58.95;;;21.90;99.90;;;;;;5032513;28;20296;-67
2023/08/22 04:13:05;;;;;;;58.17;56.13;;;22.00;99.90;;;;;;5032979;28;20701;-67
2023/08/22 04:15:35;;;;;;;45.13;43.53;;;22.00;99.90;;;;;;5032643;28;20201;-66
2023/08/22 04:18:02;;;;;;;56.08;54.13;;;21.90;99.90;;;;;;5033845;28;20230;-66
2023/08/22 04:20:29;;;;;;;43.92;42.38;;;21.90;99.90;;;;;;5032677;28;20231;-67
2023/08/22 04:22:55;;;;;;;49.70;47.95;;;22.00;99.90;;;;;;5032613;28;20200;-67
2023/08/22 04:25:22;;;;;;;45.75;44.10;;;21.90;99.90;;;;;;5032883;28;20231;-66
2023/08/22 04:27:49;;;;;;;54.17;52.25;;;22.00;99.90;;;;;;5033296;28;20311;-66
2023/08/22 04:30:17;;;;;;;65.90;63.20;;;22.00;99.90;;;;;;5038733;28;20204;-67
2023/08/22 04:32:45;;;;;;;68.28;65.88;;;22.00;99.90;;;;;;5035498;28;20212;-66
2023/08/22 04:35:11;;;;;;;67.47;65.07;;;21.90;99.90;;;;;;5032379;28;20197;-66
2023/08/22 04:37:38;;;;;;;69.85;67.40;;;21.90;99.90;;;;;;5031285;28;20254;-65
2023/08/22 04:40:06;;;;;;;57.47;55.42;;;21.90;99.90;;;;;;5032319;28;20295;-66
2023/08/22 04:42:34;;;;;;;73.80;71.22;;;21.80;99.90;;;;;;5036453;28;20208;-68
2023/08/22 04:45:01;;;;;;;83.03;80.00;;;21.80;99.90;;;;;;5033303;28;20228;-66
2023/08/22 04:47:29;;;;;;;88.18;85.10;;;21.80;99.90;;;;;;5032589;28;20797;-67
2023/08/22 04:49:56;;;;;;;71.78;69.25;;;21.80;99.90;;;;;;5032922;28;20696;-67
2023/08/22 04:52:23;;;;;;;75.30;72.65;;;21.80;99.90;;;;;;5034155;28;20200;-67
2023/08/22 04:54:49;;;;;;;68.57;66.15;;;21.80;99.90;;;;;;5032917;28;20196;-65
2023/08/22 04:57:16;;;;;;;40.17;38.75;;;21.90;99.90;;;;;;5032797;28;20224;-68
2023/08/22 04:59:43;;;;;;;66.20;63.90;;;21.90;99.90;;;;;;5031702;28;20215;-66
2023/08/22 05:02:10;;;;;;;57.50;55.47;;;21.90;99.90;;;;;;5031723;28;20208;-66
2023/08/22 05:04:38;;;;;;;59.38;57.30;;;21.90;99.90;;;;;;5031759;28;20769;-66
2023/08/22 05:07:05;;;;;;;46.35;44.70;;;21.90;99.90;;;;;;5033881;28;20228;-67
2023/08/22 05:09:32;;;;;;;50.47;48.70;;;22.00;99.90;;;;;;5033149;28;20300;-67
2023/08/22 05:11:59;;;;;;;60.88;58.72;;;22.00;99.90;;;;;;5031846;28;20590;-68
2023/08/22 05:14:27;;;;;;;45.65;43.97;;;22.00;99.90;;;;;;5031432;28;20224;-64
2023/08/22 05:16:54;;;;;;;38.92;37.53;;;22.10;99.90;;;;;;5031684;28;20228;-68
2023/08/22 05:19:21;;;;;;;34.85;33.63;;;22.10;99.90;;;;;;5030672;28;20208;-65
2023/08/22 05:21:49;;;;;;;58.58;56.45;;;22.00;99.90;;;;;;5031507;28;20583;-66
2023/08/22 05:24:16;;;;;;;43.40;41.88;;;22.00;99.90;;;;;;5031206;28;20250;-65
2023/08/22 05:26:43;;;;;;;41.85;40.38;;;22.10;99.90;;;;;;5036850;28;20227;-67
2023/08/22 05:29:10;;;;;;;43.05;41.50;;;22.20;99.90;;;;;;5033307;28;20577;-66
2023/08/22 05:31:37;;;;;;;37.67;36.35;;;22.20;99.90;;;;;;5037656;28;20201;-68
2023/08/22 05:34:03;;;;;;;30.65;29.55;;;22.30;99.90;;;;;;5036914;28;20204;-67
2023/08/22 05:36:30;;;;;;;27.92;26.95;;;22.40;99.90;;;;;;5030677;28;20212;-66
2023/08/22 05:38:58;;;;;;;30.88;29.83;;;22.40;99.90;;;;;;5037942;28;20215;-67
2023/08/22 05:41:25;;;;;;;33.42;32.25;;;22.50;99.90;;;;;;5031074;28;20679;-66
2023/08/22 05:43:52;;;;;;;30.90;29.83;;;22.60;99.90;;;;;;5031211;28;20686;-66
2023/08/22 05:46:19;;;;;;;25.35;24.45;;;22.70;99.90;;;;;;5031257;28;20299;-67
2023/08/22 05:48:46;;;;;;;25.25;24.38;;;22.80;99.90;;;;;;5032130;28;20319;-67
2023/08/22 05:51:12;;;;;;;28.27;27.25;;;22.90;99.90;;;;;;5030609;28;20215;-67
2023/08/22 05:53:39;;;;;;;24.90;24.00;;;23.10;99.90;;;;;;5031209;28;20228;-67
2023/08/22 05:56:10;;;;;;;24.58;23.73;;;23.10;99.90;;;;;;5031913;28;20586;-68
2023/08/22 05:58:37;;;;;;;25.25;24.38;;;23.20;99.90;;;;;;5031625;28;20589;-64
2023/08/22 06:01:09;;;;;;;23.20;22.40;;;23.30;99.90;;;;;;5031634;28;20235;-67
2023/08/22 06:03:36;;;;;;;28.02;27.02;;;23.30;99.90;;;;;;5032959;28;20212;-67
2023/08/22 06:06:03;;;;;;;25.10;24.20;;;23.50;99.90;;;;;;5031569;28;20830;-66
2023/08/22 06:08:30;;;;;;;25.92;24.92;;;23.50;99.90;;;;;;5031897;28;20231;-68
2023/08/22 06:10:57;;;;;;;30.23;29.17;;;23.60;99.90;;;;;;5030997;28;20208;-67
2023/08/22 06:13:25;;;;;;;32.58;31.38;;;23.60;99.90;;;;;;5038742;28;20216;-67
2023/08/22 06:15:52;;;;;;;25.45;24.55;;;23.80;99.90;;;;;;5040733;28;20285;-66
2023/08/22 06:18:19;;;;;;;29.00;27.98;;;23.90;99.90;;;;;;5040747;28;20232;-66
2023/08/22 06:20:46;;;;;;;27.35;26.40;;;23.90;99.90;;;;;;5033866;28;20551;-67
2023/08/22 06:23:13;;;;;;;26.70;25.70;;;24.00;99.90;;;;;;5034967;28;20241;-67
2023/08/22 06:25:40;;;;;;;25.23;24.35;;;24.10;99.90;;;;;;5030525;28;20228;-68
2023/08/22 06:28:07;;;;;;;26.63;25.70;;;24.20;99.90;;;;;;5030848;28;20311;-67
2023/08/22 06:30:35;;;;;;;25.67;24.77;;;24.20;99.90;;;;;;5029734;28;20208;-66
2023/08/22 06:33:02;;;;;;;23.23;22.42;;;24.30;99.90;;;;;;5029945;28;20209;-66
2023/08/22 06:35:29;;;;;;;24.27;23.42;;;24.30;99.90;;;;;;5030536;28;20589;-67
2023/08/22 06:37:55;;;;;;;22.00;21.23;;;24.40;99.90;;;;;;5031598;28;20232;-69
2023/08/22 06:40:23;;;;;;;17.83;17.20;;;24.60;99.90;;;;;;5031088;28;20219;-65
2023/08/22 06:42:50;;;;;;;18.65;17.98;;;24.60;99.90;;;;;;5031308;28;20603;-66
2023/08/22 06:45:17;;;;;;;18.00;17.35;;;24.80;99.90;;;;;;5031078;28;20225;-68
2023/08/22 06:47:45;;;;;;;14.70;14.20;;;24.90;99.90;;;;;;5030993;28;20232;-66
2023/08/22 06:50:12;;;;;;;13.82;13.32;;;25.00;99.90;;;;;;5030468;28;20212;-66
2023/08/22 06:52:39;;;;;;;15.25;14.75;;;25.00;99.90;;;;;;5031526;28;20213;-66
2023/08/22 06:55:07;;;;;;;16.38;15.82;;;25.20;99.90;;;;;;5031048;28;20196;-65
2023/08/22 06:57:35;;;;;;;14.00;13.50;;;25.20;99.90;;;;;;5030993;28;20768;-66
2023/08/22 07:00:13;;;;;;;14.63;14.13;;;25.30;99.90;;;;;;5029781;28;20281;-67
2023/08/22 07:02:40;;;;;;;14.30;13.80;;;25.50;99.90;;;;;;5031099;28;20277;-66
2023/08/22 07:05:08;;;;;;;13.77;13.27;;;25.40;99.90;;;;;;5031403;28;20226;-65
2023/08/22 07:07:35;;;;;;;15.18;14.68;;;25.70;99.90;;;;;;5033763;28;20319;-66
2023/08/22 07:10:03;;;;;;;16.60;16.00;;;25.90;99.90;;;;;;5030035;28;20607;-67
2023/08/22 07:12:29;;;;;;;15.57;15.07;;;26.00;99.90;;;;;;5030922;28;20212;-67
2023/08/22 07:14:56;;;;;;;17.15;16.55;;;26.10;99.90;;;;;;5032893;28;20616;-67
2023/08/22 07:17:23;;;;;;;17.60;17.00;;;26.20;99.90;;;;;;5031370;28;20235;-66
2023/08/22 07:19:50;;;;;;;18.38;17.77;;;26.30;99.90;;;;;;5029455;28;20215;-66
2023/08/22 07:22:18;;;;;;;17.02;16.42;;;26.40;99.90;;;;;;5029651;28;20520;-67
2023/08/22 07:24:45;;;;;;;17.60;17.00;;;26.40;99.90;;;;;;5029107;28;20677;-66
2023/08/22 07:27:12;;;;;;;17.58;16.98;;;26.20;99.90;;;;;;5029733;28;20781;-66
2023/08/22 07:29:39;;;;;;;16.88;16.27;;;26.40;99.90;;;;;;5029046;28;20730;-68
2023/08/22 07:32:08;;;;;;;17.08;16.48;;;26.60;99.90;;;;;;5032365;28;20262;-66
2023/08/22 07:34:35;;;;;;;17.25;16.65;;;26.70;99.90;;;;;;5029809;28;20741;-66
2023/08/22 07:37:02;;;;;;;19.67;18.98;;;26.70;99.90;;;;;;5029683;28;20260;-66
2023/08/22 07:39:30;;;;;;;18.55;17.92;;;26.70;99.90;;;;;;5028675;28;20717;-66
2023/08/22 07:41:57;;;;;;;18.45;17.75;;;26.70;99.90;;;;;;5029671;28;20215;-65
2023/08/22 07:44:24;;;;;;;18.73;18.02;;;26.80;99.90;;;;;;5029001;28;20675;-66
2023/08/22 07:46:51;;;;;;;17.95;17.35;;;26.90;99.90;;;;;;5029485;28;20235;-67
2023/08/22 07:49:18;;;;;;;21.13;20.35;;;26.80;99.90;;;;;;5029759;28;20562;-66
2023/08/22 07:51:45;;;;;;;19.48;18.77;;;26.90;99.90;;;;;;5031016;28;20306;-68
2023/08/22 07:54:12;;;;;;;21.10;20.30;;;27.00;99.90;;;;;;5031764;28;20204;-67
2023/08/22 07:56:40;;;;;;;17.98;17.38;;;27.20;99.90;;;;;;5033586;28;20220;-66
2023/08/22 07:59:07;;;;;;;19.92;19.23;;;27.30;99.90;;;;;;5034348;28;20215;-65
2023/08/22 08:01:35;;;;;;;21.60;20.90;;;27.50;99.90;;;;;;5030674;28;20303;-67
2023/08/22 08:04:02;;;;;;;19.40;18.73;;;27.50;99.90;;;;;;5030181;28;20208;-68
2023/08/22 08:06:33;;;;;;;19.00;18.33;;;27.60;99.90;;;;;;5029720;28;20706;-66
2023/08/22 08:09:00;;;;;;;24.90;24.02;;;27.70;99.90;;;;;;5030028;28;20278;-67
2023/08/22 08:11:28;;;;;;;24.08;23.23;;;27.80;99.90;;;;;;5030328;28;20243;-66
2023/08/22 08:13:56;;;;;;;24.98;24.08;;;27.70;99.90;;;;;;5035593;28;20286;-66
2023/08/22 08:16:23;;;;;;;24.10;23.27;;;27.80;99.90;;;;;;5041575;28;20201;-66
2023/08/22 08:18:52;;;;;;;26.27;25.33;;;27.90;99.90;;;;;;5034552;28;20243;-65
2023/08/22 08:21:19;;;;;;;20.75;20.02;;;27.70;99.90;;;;;;5032776;28;20205;-67
2023/08/22 08:23:45;;;;;;;22.63;21.83;;;27.90;99.90;;;;;;5033170;28;20215;-68
2023/08/22 08:26:12;;;;;;;53.35;50.80;;;27.90;99.90;;;;;;5032762;28;20221;-68
2023/08/22 08:28:39;;;;;;;27.35;26.33;;;28.00;99.90;;;;;;5033313;28;20237;-67
2023/08/22 08:31:07;;;;;;;27.35;26.38;;;28.00;99.90;;;;;;5032305;28;20210;-66
2023/08/22 08:33:34;;;;;;;19.17;18.48;;;28.10;99.90;;;;;;5032624;28;20226;-68
2023/08/22 08:36:01;;;;;;;46.30;43.38;;;28.20;99.90;;;;;;5033389;28;20893;-66
2023/08/22 08:38:28;;;;;;;20.95;20.23;;;28.20;99.90;;;;;;5038409;28;20235;-67
2023/08/22 08:40:59;;;;;;;21.08;20.38;;;28.30;99.90;;;;;;5032160;28;20647;-67
2023/08/22 08:43:26;;;;;;;22.08;21.27;;;28.40;99.90;;;;;;5035663;28;20208;-66
2023/08/22 08:45:54;;;;;;;21.45;20.73;;;28.60;99.90;;;;;;5034690;28;20217;-67
2023/08/22 08:48:23;;;;;;;26.27;25.33;;;28.50;99.90;;;;;;5028773;22;20240;-64
2023/08/22 08:50:51;;;;;;;24.08;23.23;;;28.60;99.90;;;;;;5012072;28;20272;-64
2023/08/22 08:53:18;;;;;;;23.42;22.50;;;28.70;99.90;;;;;;5012560;28;20201;-64
2023/08/22 08:55:46;;;;;;;26.15;25.15;;;28.80;99.90;;;;;;5012066;28;20198;-64
2023/08/22 08:58:13;;;;;;;26.35;25.35;;;28.90;99.90;;;;;;5011139;28;20236;-64
2023/08/22 09:00:40;;;;;;;23.90;23.08;;;29.10;99.90;;;;;;5012900;28;20659;-64
2023/08/22 09:03:07;;;;;;;25.63;24.67;;;29.30;99.90;;;;;;5013428;28;20209;-63
2023/08/22 09:05:36;;;;;;;26.75;25.83;;;29.30;99.90;;;;;;5014060;28;20261;-65
2023/08/22 09:08:16;;;;;;;26.55;25.58;;;29.20;99.90;;;;;;5013129;28;20655;-64
2023/08/22 09:10:48;;;;;;;26.75;25.85;;;29.50;99.90;;;;;;5012858;28;20702;-64
2023/08/22 09:13:15;;;;;;;25.05;24.15;;;29.60;99.90;;;;;;5013926;28;20201;-65
2023/08/22 09:15:43;;;;;;;21.48;20.63;;;29.80;99.90;;;;;;5013482;28;20300;-65
2023/08/22 09:18:14;;;;;;;21.27;20.48;;;29.80;99.90;;;;;;5013285;28;20222;-65
2023/08/22 09:20:45;;;;;;;24.52;23.63;;;29.60;99.90;;;;;;5012118;28;20205;-64
2023/08/22 09:23:20;;;;;;;21.80;20.92;;;29.70;99.90;;;;;;5010792;28;20208;-64
2023/08/22 09:25:48;;;;;;;21.80;21.02;;;29.80;99.90;;;;;;5011593;28;20232;-64
2023/08/22 09:28:16;;;;;;;19.33;18.63;;;30.00;99.90;;;;;;5011735;28;20279;-64
2023/08/22 09:30:48;;;;;;;20.98;20.25;;;30.10;99.90;;;;;;5010764;28;20312;-65
2023/08/22 09:33:15;;;;;;;20.00;19.30;;;29.90;99.90;;;;;;5011549;28;20205;-66
2023/08/22 09:35:43;;;;;;;19.27;18.58;;;30.00;99.90;;;;;;5011362;28;20215;-65
2023/08/22 09:38:11;;;;;;;19.15;18.45;;;30.10;99.90;;;;;;5011187;28;20229;-65
2023/08/22 09:40:50;;;;;;;22.52;21.73;;;30.10;99.90;;;;;;5010206;28;20556;-65
2023/08/22 09:43:17;;;;;;;16.45;15.80;;;30.00;99.90;;;;;;5011194;28;20212;-65
2023/08/22 09:45:45;;;;;;;15.18;14.68;;;30.10;99.90;;;;;;5010797;28;20228;-65
2023/08/22 09:48:19;;;;;;;14.95;14.45;;;30.00;99.90;;;;;;5011101;28;20239;-65
2023/08/22 09:50:52;;;;;;;13.23;12.73;;;30.10;99.90;;;;;;5009747;28;20209;-65
2023/08/22 09:53:20;;;;;;;14.13;13.63;;;30.10;99.90;;;;;;5012884;28;20501;-65
2023/08/22 09:55:48;;;;;;;14.25;13.75;;;30.40;99.90;;;;;;5012371;28;20566;-65
2023/08/22 09:58:15;;;;;;;25.25;24.10;;;30.60;99.90;;;;;;5012167;28;20255;-65
2023/08/22 10:00:44;;;;;;;27.45;26.00;;;30.60;99.90;;;;;;5011710;28;20212;-65
2023/08/22 10:03:12;;;;;;;14.10;13.50;;;30.40;99.90;;;;;;5012399;28;20210;-65
2023/08/22 10:05:40;;;;;;;12.90;12.50;;;30.30;99.90;;;;;;5012640;28;20580;-65
2023/08/22 10:08:08;;;;;;;13.75;13.25;;;30.30;99.90;;;;;;5011984;28;20226;-64
2023/08/22 10:10:35;;;;;;;12.68;12.18;;;30.50;99.90;;;;;;5011860;28;20593;-65
2023/08/22 10:13:04;;;;;;;12.80;12.30;;;30.60;99.90;;;;;;5012212;28;20201;-65
2023/08/22 10:15:33;;;;;;;12.05;11.65;;;30.80;99.90;;;;;;5012310;28;20582;-64
2023/08/22 10:18:00;;;;;;;11.68;11.27;;;30.90;99.90;;;;;;5012477;28;20229;-64
2023/08/22 10:20:27;;;;;;;12.15;11.75;;;31.00;99.90;;;;;;5012463;28;20205;-64
2023/08/22 10:22:54;;;;;;;12.65;12.15;;;31.20;99.90;;;;;;5012207;28;20215;-68
2023/08/22 10:25:48;;;;;;;12.35;11.95;;;31.10;99.90;;;;;;5012452;28;20676;-64
2023/08/22 10:28:15;;;;;;;13.35;12.85;;;30.90;99.90;;;;;;5011971;28;20226;-64
2023/08/22 10:31:01;;;;;;;13.30;12.80;;;30.70;99.90;;;;;;5010986;28;20206;-64
2023/08/22 10:33:29;;;;;;;15.77;15.05;;;30.90;99.90;;;;;;5011667;28;20212;-64
2023/08/22 10:36:16;;;;;;;12.80;12.30;;;30.90;99.90;;;;;;5011114;28;20206;-66
2023/08/22 10:38:53;;;;;;;13.52;12.82;;;31.00;99.90;;;;;;5010197;28;20756;-66
2023/08/22 10:41:23;;;;;;;13.50;13.00;;;31.30;99.90;;;;;;5009282;28;20205;-65
2023/08/22 10:43:50;;;;;;;14.13;13.52;;;31.30;99.90;;;;;;5010193;28;20205;-65
2023/08/22 10:46:17;;;;;;;15.05;14.35;;;31.50;99.90;;;;;;5010597;28;20263;-66
2023/08/22 10:48:46;;;;;;;13.63;13.13;;;31.60;99.90;;;;;;5009464;28;20237;-66
2023/08/22 10:51:13;;;;;;;14.57;14.07;;;31.80;99.90;;;;;;5009461;28;20212;-66
2023/08/22 10:53:44;;;;;;;14.57;14.07;;;31.90;99.90;;;;;;5010155;28;20598;-64
2023/08/22 10:56:22;;;;;;;15.55;14.95;;;32.00;99.90;;;;;;5010154;28;20621;-64
2023/08/22 10:59:00;;;;;;;18.63;17.92;;;32.00;99.90;;;;;;5009902;28;20225;-64
2023/08/22 11:01:27;;;;;;;14.60;14.00;;;32.00;99.90;;;;;;5009871;28;20239;-64
2023/08/22 11:03:55;;;;;;;16.27;15.68;;;31.90;99.90;;;;;;5009626;28;20303;-64
2023/08/22 11:06:24;;;;;;;34.65;32.55;;;31.80;99.90;;;;;;5010718;28;20233;-64
2023/08/22 11:08:51;;;;;;;13.48;12.98;;;31.60;99.90;;;;;;5009481;28;20501;-64
2023/08/22 11:11:20;;;;;;;14.52;14.00;;;31.70;99.90;;;;;;5009106;28;20698;-64
2023/08/22 11:13:48;;;;;;;17.27;16.67;;;31.90;99.90;;;;;;5010007;28;20231;-65
2023/08/22 11:16:17;;;;;;;14.90;14.40;;;32.10;99.90;;;;;;5010118;28;20198;-64
2023/08/22 11:18:46;;;;;;;14.88;14.27;;;32.30;99.90;;;;;;5011359;28;20655;-65
2023/08/22 11:21:14;;;;;;;15.32;14.73;;;32.30;99.90;;;;;;5010095;28;20593;-65
2023/08/22 11:23:42;;;;;;;15.75;15.15;;;32.40;99.90;;;;;;5009930;28;20215;-64
2023/08/22 11:26:10;;;;;;;15.25;14.60;;;32.40;99.90;;;;;;5009982;28;20232;-64
2023/08/22 11:28:37;;;;;;;22.92;21.92;;;32.50;99.90;;;;;;5010735;28;20607;-64
2023/08/22 11:31:05;;;;;;;14.80;14.30;;;32.50;99.90;;;;;;5010580;28;20300;-64
2023/08/22 11:33:54;;;;;;;19.48;18.77;;;32.20;99.90;;;;;;5011464;28;20747;-64
2023/08/22 11:36:23;;;;;;;15.95;15.35;;;32.20;99.90;;;;;;5008143;28;20216;-66
2023/08/22 11:38:51;;;;;;;16.67;16.08;;;32.20;99.90;;;;;;5009942;28;20231;-64
2023/08/22 11:41:20;;;;;;;14.75;14.25;;;32.40;99.90;;;;;;5009955;28;20571;-64
2023/08/22 11:43:59;;;;;;;15.00;14.50;;;32.50;99.90;;;;;;5010200;28;20205;-64
2023/08/22 11:46:26;;;;;;;15.13;14.52;;;32.60;99.90;;;;;;5012680;28;20252;-63
2023/08/22 11:48:54;;;;;;;15.55;14.95;;;32.60;99.90;;;;;;5014591;28;20229;-64
2023/08/22 11:51:21;;;;;;;15.32;14.73;;;32.70;99.90;;;;;;5013217;28;20211;-66
2023/08/22 11:53:49;;;;;;;14.77;14.18;;;32.60;99.90;;;;;;5013394;28;20213;-65
2023/08/22 11:56:16;;;;;;;14.25;13.75;;;32.60;99.90;;;;;;5013604;28;20232;-64
2023/08/22 11:58:53;;;;;;;14.35;13.85;;;32.70;99.90;;;;;;5013472;28;20773;-64
2023/08/22 12:01:22;;;;;;;18.33;17.58;;;32.80;99.90;;;;;;5013238;28;20209;-63
2023/08/22 12:03:49;;;;;;;14.95;14.38;;;32.70;99.90;;;;;;5014055;28;20209;-63
2023/08/22 12:06:17;;;;;;;14.38;13.88;;;32.90;99.90;;;;;;5013384;28;20694;-64
2023/08/22 12:08:55;;;;;;;15.02;14.50;;;32.90;99.90;;;;;;5012463;28;20751;-64
2023/08/22 12:11:26;;;;;;;14.70;14.20;;;32.80;99.90;;;;;;5013663;28;20605;-64
2023/08/22 12:13:53;;;;;;;15.52;14.93;;;32.70;99.90;;;;;;5013885;28;20209;-64
2023/08/22 12:16:20;;;;;;;14.52;14.02;;;32.70;99.90;;;;;;5013109;28;20564;-63
2023/08/22 12:18:47;;;;;;;15.13;14.60;;;32.70;99.90;;;;;;5012910;28;20235;-63
2023/08/22 12:21:14;;;;;;;14.15;13.65;;;32.80;99.90;;;;;;5013200;28;20580;-65
2023/08/22 12:23:43;;;;;;;14.88;14.38;;;32.90;99.90;;;;;;5014168;28;20205;-65
2023/08/22 12:26:10;;;;;;;14.45;13.95;;;33.00;99.90;;;;;;5014555;28;20216;-65
2023/08/22 12:28:37;;;;;;;14.30;13.80;;;33.00;99.90;;;;;;5014436;28;20235;-64
2023/08/22 12:31:04;;;;;;;14.00;13.50;;;32.90;99.90;;;;;;5013906;28;20696;-65
2023/08/22 12:33:30;;;;;;;14.43;13.93;;;33.00;99.90;;;;;;5014827;28;20209;-65